Time;durP1;ratioP1;P1;durP2;ratioP2;P2;SDS_P1;SDS_P2;PMS_P1;PMS_P2;Temp;Humidity;BMP_temperature;BMP_pressure;BME280_temperature;BME280_humidity;BME280_pressure;Samples;Min_cycle;Max_cycle;Signal;HPM_P1;HPM_P2
2022/04/17 00:01:38;;;;;;;13.65;9.27;;;;;;;12.81;52.78;94794.66;4979440;28;20531;-77
2022/04/17 00:04:04;;;;;;;9.95;8.95;;;;;;;12.71;53.31;94786.72;5012022;28;20496;-77
2022/04/17 00:06:29;;;;;;;11.43;9.27;;;;;;;12.69;53.38;94786.97;5012027;28;21062;-78
2022/04/17 00:08:55;;;;;;;14.93;9.35;;;;;;;12.67;53.52;94777.78;4978734;28;20030;-78
2022/04/17 00:11:20;;;;;;;17.80;9.30;;;;;;;12.67;53.78;94788.22;4996800;28;20091;-78
2022/04/17 00:13:48;;;;;;;11.77;9.40;;;;;;;12.68;53.63;94784.59;4995368;28;20041;-78
2022/04/17 00:16:13;;;;;;;12.88;9.07;;;;;;;12.67;53.82;94780.41;5011778;28;20038;-78
2022/04/17 00:18:39;;;;;;;16.30;10.48;;;;;;;12.65;53.90;94785.88;4995056;28;20537;-78
2022/04/17 00:21:04;;;;;;;14.02;10.73;;;;;;;12.63;54.35;94790.53;4994352;28;20409;-78
2022/04/17 00:23:30;;;;;;;12.70;9.25;;;;;;;12.61;54.54;94782.97;4995274;28;20034;-78
2022/04/17 00:25:55;;;;;;;17.17;9.75;;;;;;;12.64;55.17;94779.06;5012124;28;20038;-78
2022/04/17 00:28:21;;;;;;;12.52;9.35;;;;;;;12.55;54.98;94781.34;4961459;28;20030;-77
2022/04/17 00:30:46;;;;;;;15.30;10.45;;;;;;;12.53;55.15;94772.97;4993685;28;20046;-77
2022/04/17 00:33:12;;;;;;;12.70;9.68;;;;;;;12.43;55.58;94770.25;4977717;28;20042;-77
2022/04/17 00:35:38;;;;;;;11.32;9.57;;;;;;;12.42;55.50;94760.06;5010070;28;20466;-77
2022/04/17 00:38:04;;;;;;;10.45;8.95;;;;;;;12.40;55.52;94738.66;4993952;28;20044;-77
2022/04/17 00:40:30;;;;;;;16.10;9.77;;;;;;;12.36;55.80;94750.59;4993448;28;20022;-78
2022/04/17 00:42:58;;;;;;;15.82;9.65;;;;;;;12.34;56.13;94774.31;4977437;28;20042;-78
2022/04/17 00:45:24;;;;;;;10.82;9.57;;;;;;;12.39;56.12;94765.78;4992816;28;20092;-76
2022/04/17 00:47:49;;;;;;;19.98;9.88;;;;;;;12.40;55.72;94756.91;4993313;28;20045;-77
2022/04/17 00:50:14;;;;;;;14.77;10.05;;;;;;;12.37;55.77;94758.19;5010487;28;20030;-77
2022/04/17 00:52:40;;;;;;;13.48;10.00;;;;;;;12.37;55.75;94760.81;4977357;28;20034;-77
2022/04/17 00:55:06;;;;;;;11.10;9.90;;;;;;;12.38;55.50;94754.56;4977215;28;20046;-77
2022/04/17 00:57:31;;;;;;;14.85;10.43;;;;;;;12.39;55.67;94750.13;4976987;28;20036;-77
2022/04/17 00:59:57;;;;;;;12.45;9.93;;;;;;;12.36;55.47;94747.97;4977000;28;20525;-77
2022/04/17 01:02:23;;;;;;;14.35;9.30;;;;;;;12.37;55.02;94744.38;4994341;28;20413;-77
2022/04/17 01:04:48;;;;;;;14.00;8.75;;;;;;;12.31;55.17;94740.91;5011258;28;20485;-77
2022/04/17 01:07:15;;;;;;;10.30;8.57;;;;;;;12.21;54.98;94744.19;4993714;28;20410;-78
2022/04/17 01:09:40;;;;;;;17.48;9.35;;;;;;;12.16;55.29;94748.53;5015168;28;20073;-78
2022/04/17 01:12:10;;;;;;;10.10;9.05;;;;;;;12.14;55.32;94753.22;4996207;28;20073;-78
2022/04/17 01:14:41;;;;;;;22.73;9.43;;;;;;;12.14;55.14;94746.19;4983709;28;20038;-77
2022/04/17 01:17:07;;;;;;;12.73;7.83;;;;;;;12.11;55.14;94738.06;4999160;28;20048;-78
2022/04/17 01:19:37;;;;;;;12.43;8.57;;;;;;;12.05;55.12;94733.84;4997731;28;20284;-78
2022/04/17 01:22:12;;;;;;;11.65;9.10;;;;;;;11.99;55.28;94738.97;4983034;28;20032;-78
2022/04/17 01:27:23;;;;;;;10.23;8.55;;;;;;;11.81;55.78;94739.25;4996188;28;20068;-77
2022/04/17 01:29:50;;;;;;;10.68;8.25;;;;;;;11.79;56.11;94736.09;4977136;28;20064;-76
2022/04/17 01:32:16;;;;;;;8.55;7.75;;;;;;;11.76;55.97;94730.56;4977717;28;20042;-78
2022/04/17 01:34:41;;;;;;;9.82;8.05;;;;;;;11.73;56.30;94731.84;4977060;28;20034;-78
2022/04/17 01:37:07;;;;;;;9.90;8.52;;;;;;;11.69;56.43;94733.31;4992739;28;20046;-77
2022/04/17 01:39:32;;;;;;;12.80;8.20;;;;;;;11.69;56.16;94734.09;4993453;28;20021;-77
2022/04/17 01:41:58;;;;;;;16.50;8.30;;;;;;;11.66;56.31;94741.63;4993423;28;20030;-78
2022/04/17 01:44:25;;;;;;;10.30;8.65;;;;;;;11.64;56.59;94730.66;4976869;28;20048;-77
2022/04/17 01:46:50;;;;;;;9.82;8.82;;;;;;;11.64;56.42;94733.25;4993319;28;20030;-78
2022/04/17 01:49:16;;;;;;;13.50;8.85;;;;;;;11.65;56.82;94734.84;4977108;28;20567;-78
2022/04/17 01:51:42;;;;;;;9.05;8.23;;;;;;;11.68;56.94;94732.53;4993086;28;20042;-78
2022/04/17 01:54:18;;;;;;;11.10;8.70;;;;;;;11.73;56.40;94724.03;5009123;28;20125;-78
2022/04/17 01:56:44;;;;;;;11.77;8.15;;;;;;;11.77;56.34;94727.72;4976907;28;20425;-78
2022/04/17 01:59:10;;;;;;;9.13;8.18;;;;;;;11.82;56.88;94725.19;4993277;28;20042;-78
2022/04/17 02:01:36;;;;;;;9.63;8.38;;;;;;;11.84;56.59;94728.34;4978734;28;20033;-78
2022/04/17 02:04:03;;;;;;;9.75;8.00;;;;;;;11.85;56.82;94729.91;4978578;28;20034;-78
2022/04/17 02:06:28;;;;;;;14.35;8.52;;;;;;;11.84;56.92;94723.13;5010182;28;20033;-78
2022/04/17 02:08:54;;;;;;;9.77;8.60;;;;;;;11.77;57.01;94726.94;4996344;28;20038;-77
2022/04/17 02:11:21;;;;;;;14.32;8.10;;;;;;;11.78;57.05;94734.50;4982917;28;20041;-77
2022/04/17 02:13:46;;;;;;;15.32;9.40;;;;;;;11.82;56.67;94733.00;5015735;28;20037;-77
2022/04/17 02:16:17;;;;;;;11.00;9.02;;;;;;;11.81;56.81;94718.41;4999055;28;20034;-77
2022/04/17 02:18:44;;;;;;;10.00;9.00;;;;;;;11.86;56.75;94705.44;4983497;28;20387;-77
2022/04/17 02:21:09;;;;;;;12.60;8.23;;;;;;;11.83;56.75;94718.16;5018123;28;20080;-78
2022/04/17 02:23:35;;;;;;;11.60;9.52;;;;;;;11.78;57.23;94715.47;4983781;28;20038;-78
2022/04/17 02:26:01;;;;;;;11.48;9.10;;;;;;;11.82;57.07;94699.13;5017715;28;20648;-79
2022/04/17 02:28:27;;;;;;;10.75;9.65;;;;;;;11.75;57.23;94703.72;5001400;28;20034;-78
2022/04/17 02:31:10;;;;;;;12.52;9.48;;;;;;;11.67;57.88;94701.53;5023194;28;20034;-77
2022/04/17 02:33:36;;;;;;;17.02;10.60;;;;;;;11.59;57.97;94694.13;4994659;28;20043;-78
2022/04/17 02:36:02;;;;;;;12.68;9.82;;;;;;;11.59;58.00;94701.94;4995510;28;20050;-78
2022/04/17 02:38:27;;;;;;;13.77;9.38;;;;;;;11.63;58.29;94708.25;4981482;28;20035;-78
2022/04/17 02:40:53;;;;;;;18.42;10.07;;;;;;;11.62;58.21;94709.28;4977949;28;20097;-78
2022/04/17 02:43:19;;;;;;;12.18;9.05;;;;;;;11.58;58.40;94695.16;4960415;28;20043;-78
2022/04/17 02:45:44;;;;;;;14.52;10.60;;;;;;;11.50;58.70;94698.94;4977097;28;20038;-77
2022/04/17 02:48:10;;;;;;;11.43;9.80;;;;;;;11.43;59.17;94688.72;4945376;28;20090;-78
2022/04/17 02:50:35;;;;;;;14.93;11.00;;;;;;;11.33;59.01;94695.59;4945895;28;20034;-77
2022/04/17 02:53:01;;;;;;;12.98;11.57;;;;;;;11.31;59.08;94698.44;4960736;28;20398;-78
2022/04/17 02:55:26;;;;;;;19.33;12.48;;;;;;;11.34;59.42;94697.94;4975148;28;20033;-77
2022/04/17 02:57:52;;;;;;;19.65;13.38;;;;;;;11.34;58.77;94697.94;4943944;28;20046;-77
2022/04/17 03:00:17;;;;;;;15.65;12.13;;;;;;;11.35;59.18;94704.72;4962121;28;20542;-78
2022/04/17 03:05:36;;;;;;;13.20;11.35;;;;;;;11.22;59.42;94699.06;4948904;28;20053;-77
2022/04/17 03:08:07;;;;;;;17.25;10.95;;;;;;;11.13;59.75;94696.88;4938815;28;20035;-77
2022/04/17 03:10:33;;;;;;;13.07;10.82;;;;;;;11.16;59.74;94710.44;4977875;28;20042;-77
2022/04/17 03:12:58;;;;;;;14.98;10.80;;;;;;;11.17;59.90;94702.38;4943176;28;20538;-77
2022/04/17 03:15:24;;;;;;;11.45;10.30;;;;;;;11.21;59.55;94687.06;4942692;28;20041;-77
2022/04/17 03:17:49;;;;;;;13.43;9.88;;;;;;;11.22;59.57;94683.44;4958997;28;20133;-77
2022/04/17 03:20:15;;;;;;;14.95;8.70;;;;;;;11.13;59.96;94690.88;4957141;28;20042;-77
2022/04/17 03:22:41;;;;;;;11.23;9.57;;;;;;;11.12;59.62;94691.91;4955935;28;20043;-77
2022/04/17 03:25:07;;;;;;;10.23;9.00;;;;;;;11.10;59.85;94693.97;4956504;28;20461;-77
2022/04/17 03:27:32;;;;;;;15.68;8.70;;;;;;;11.09;59.92;94693.19;4940053;28;20047;-77
2022/04/17 03:29:58;;;;;;;9.65;8.65;;;;;;;11.04;60.25;94700.09;4956108;28;20027;-77
2022/04/17 03:32:23;;;;;;;16.77;8.57;;;;;;;11.07;60.03;94686.63;4939894;28;20058;-76
2022/04/17 03:34:49;;;;;;;16.83;9.43;;;;;;;11.00;60.75;94697.19;4955643;28;20046;-77
2022/04/17 03:37:14;;;;;;;10.18;8.52;;;;;;;10.99;60.30;94694.81;4939485;28;20038;-76
2022/04/17 03:39:40;;;;;;;16.08;8.07;;;;;;;11.01;60.74;94705.78;4939911;28;20166;-76
2022/04/17 03:42:06;;;;;;;9.35;8.38;;;;;;;10.98;60.43;94694.03;4939647;28;20059;-77
2022/04/17 03:44:32;;;;;;;15.50;8.77;;;;;;;11.01;60.70;94693.56;4972714;28;20054;-77
2022/04/17 03:46:57;;;;;;;8.93;8.00;;;;;;;11.03;61.09;94698.53;4939287;28;20069;-77
2022/04/17 03:49:22;;;;;;;15.25;8.18;;;;;;;11.08;60.81;94699.41;4971700;28;20030;-76
2022/04/17 03:51:48;;;;;;;12.52;8.07;;;;;;;11.12;60.73;94702.31;4955793;28;20043;-77
2022/04/17 03:54:13;;;;;;;8.80;7.95;;;;;;;11.15;60.61;94709.66;4955620;28;20050;-77
2022/04/17 03:56:39;;;;;;;12.32;8.20;;;;;;;11.16;60.58;94703.41;4973010;28;20061;-77
2022/04/17 03:59:04;;;;;;;12.90;7.30;;;;;;;11.15;60.49;94711.47;4955967;28;20439;-77
2022/04/17 04:01:30;;;;;;;10.15;8.30;;;;;;;11.12;60.36;94705.72;4939642;28;20388;-77
2022/04/17 04:03:55;;;;;;;13.77;8.13;;;;;;;11.10;60.65;94712.19;4973360;28;20081;-77
2022/04/17 04:06:21;;;;;;;8.95;7.35;;;;;;;11.04;60.43;94700.09;4973034;28;20035;-77
2022/04/17 04:08:49;;;;;;;8.48;7.38;;;;;;;11.01;61.26;94708.38;4923408;28;20053;-77
2022/04/17 04:11:14;;;;;;;9.82;7.72;;;;;;;11.02;61.33;94710.75;4956368;28;20447;-78
2022/04/17 04:13:42;;;;;;;9.05;8.15;;;;;;;10.97;62.89;94702.09;4972835;28;20034;-77
2022/04/17 04:16:07;;;;;;;8.43;6.78;;;;;;;10.95;63.30;94704.13;4972881;28;20126;-77
2022/04/17 04:18:33;;;;;;;9.82;7.97;;;;;;;10.97;63.39;94710.66;4955273;28;20039;-77
2022/04/17 04:20:58;;;;;;;18.38;7.90;;;;;;;11.02;63.31;94704.75;4976865;28;20046;-77
2022/04/17 04:23:24;;;;;;;9.80;8.18;;;;;;;10.97;63.34;94707.28;4941692;28;20392;-77
2022/04/17 04:25:49;;;;;;;8.68;7.70;;;;;;;10.99;64.09;94708.63;4959375;28;20047;-78
2022/04/17 04:28:33;;;;;;;9.27;8.38;;;;;;;10.99;63.71;94713.03;4942946;28;20043;-77
2022/04/17 04:31:01;;;;;;;8.88;8.07;;;;;;;11.03;63.67;94720.13;4963175;28;20050;-77
2022/04/17 04:33:26;;;;;;;9.60;7.30;;;;;;;11.05;63.49;94714.69;4977520;28;20066;-77
2022/04/17 04:35:52;;;;;;;8.88;8.00;;;;;;;11.10;63.57;94712.97;4962429;28;20030;-77
2022/04/17 04:38:17;;;;;;;13.07;8.77;;;;;;;11.14;63.26;94728.88;4942918;28;20042;-79
2022/04/17 04:40:43;;;;;;;8.68;7.68;;;;;;;11.13;63.24;94712.50;4972461;28;20053;-76
2022/04/17 04:43:08;;;;;;;13.27;8.02;;;;;;;11.13;64.02;94716.91;4939652;28;20042;-77
2022/04/17 04:49:29;;;;;;;11.40;8.32;;;;;;;11.09;63.83;94711.41;4958456;28;20053;-78
2022/04/17 04:51:06;;;;;;;9.52;7.90;;;;;;;11.06;64.42;94711.06;4946544;28;20031;-77
2022/04/17 04:53:32;;;;;;;8.40;7.60;;;;;;;11.04;64.29;94708.69;4956857;28;20483;-77
2022/04/17 04:55:57;;;;;;;8.80;7.28;;;;;;;11.08;64.13;94704.63;4971807;28;20046;-77
2022/04/17 04:58:22;;;;;;;12.55;7.50;;;;;;;11.04;64.19;94707.91;4954959;28;20085;-76
2022/04/17 05:00:48;;;;;;;12.30;6.53;;;;;;;10.98;64.39;94703.66;4972067;28;20517;-77
2022/04/17 05:03:13;;;;;;;10.95;8.23;;;;;;;10.99;65.38;94710.44;4971927;28;20031;-77
2022/04/17 05:05:39;;;;;;;8.57;7.47;;;;;;;10.97;65.16;94710.66;4956784;28;20502;-78
2022/04/17 05:08:05;;;;;;;9.23;7.45;;;;;;;11.01;64.82;94710.97;4974006;28;20133;-77
2022/04/17 05:10:30;;;;;;;8.75;7.78;;;;;;;11.02;65.12;94707.34;4971566;28;20109;-78
2022/04/17 05:12:56;;;;;;;9.60;8.60;;;;;;;11.02;66.48;94709.97;4971337;28;20033;-77
2022/04/17 05:15:22;;;;;;;10.27;8.73;;;;;;;11.04;65.69;94708.69;4938941;28;20050;-77
2022/04/17 05:17:48;;;;;;;9.48;8.52;;;;;;;11.12;65.78;94704.91;4973136;28;20110;-75
2022/04/17 05:20:14;;;;;;;8.57;7.68;;;;;;;11.12;65.83;94702.31;4971577;28;20122;-77
2022/04/17 05:22:40;;;;;;;13.10;8.20;;;;;;;11.15;66.75;94701.84;4938529;28;20406;-75
2022/04/17 05:25:06;;;;;;;12.52;8.18;;;;;;;11.16;66.29;94695.59;4938018;28;20509;-77
2022/04/17 05:27:31;;;;;;;11.35;7.82;;;;;;;11.18;66.46;94700.56;4937639;28;20039;-76
2022/04/17 05:29:57;;;;;;;14.20;7.88;;;;;;;11.17;66.59;94691.97;4954393;28;20102;-77
2022/04/17 05:32:22;;;;;;;12.18;7.53;;;;;;;11.25;66.87;94699.41;4953903;28;20482;-76
2022/04/17 05:34:48;;;;;;;12.90;8.43;;;;;;;11.31;66.15;94695.84;4952591;28;20101;-77
2022/04/17 05:37:14;;;;;;;9.85;7.55;;;;;;;11.32;65.98;94699.22;4937302;28;20034;-77
2022/04/17 05:39:39;;;;;;;8.32;7.40;;;;;;;11.32;65.43;94700.00;4970398;28;20041;-77
2022/04/17 05:42:05;;;;;;;11.43;7.72;;;;;;;11.39;65.98;94702.47;4954140;28;20111;-77
2022/04/17 05:44:30;;;;;;;10.07;7.35;;;;;;;11.35;65.64;94703.94;4952501;28;20050;-77
2022/04/17 05:46:56;;;;;;;10.45;7.35;;;;;;;11.37;66.48;94704.50;4936891;28;20054;-76
2022/04/17 05:49:22;;;;;;;9.43;8.50;;;;;;;11.39;65.62;94700.66;4953052;28;20475;-77
2022/04/17 05:51:47;;;;;;;9.43;7.95;;;;;;;11.41;66.27;94698.59;4937186;28;20126;-77
2022/04/17 05:54:13;;;;;;;10.05;7.30;;;;;;;11.47;65.81;94696.03;4937478;28;20071;-77
2022/04/17 05:56:38;;;;;;;12.25;7.68;;;;;;;11.50;65.94;94700.78;4953206;28;20034;-77
2022/04/17 05:59:07;;;;;;;8.80;7.78;;;;;;;11.53;65.93;94689.88;4937659;28;20035;-77
2022/04/17 06:01:33;;;;;;;8.48;6.93;;;;;;;11.59;65.48;94694.13;4970598;28;20037;-77
2022/04/17 06:04:01;;;;;;;8.80;6.57;;;;;;;11.63;64.43;94695.22;4953530;28;20042;-77
2022/04/17 06:06:26;;;;;;;7.50;6.68;;;;;;;11.62;65.19;94698.84;4960676;28;20081;-76
2022/04/17 06:08:52;;;;;;;8.70;7.90;;;;;;;11.60;65.00;94693.09;4952682;28;20054;-76
2022/04/17 06:11:17;;;;;;;12.15;7.15;;;;;;;11.67;65.20;94691.09;4937366;28;20039;-77
2022/04/17 06:13:43;;;;;;;7.70;6.90;;;;;;;11.66;64.81;94697.34;4953403;28;20030;-76
2022/04/17 06:16:08;;;;;;;9.40;7.97;;;;;;;11.64;65.54;94681.16;4954642;28;20035;-77
2022/04/17 06:18:34;;;;;;;9.80;7.32;;;;;;;11.65;65.13;94682.75;4953270;28;20038;-77
2022/04/17 06:21:01;;;;;;;8.05;7.25;;;;;;;11.70;65.33;94682.81;4956761;28;20038;-78
2022/04/17 06:23:28;;;;;;;7.55;6.78;;;;;;;11.65;65.74;94688.75;4956604;28;20047;-78
2022/04/17 06:25:53;;;;;;;8.30;6.65;;;;;;;11.68;64.19;94684.88;4975967;28;20034;-78
2022/04/17 06:28:19;;;;;;;7.60;6.00;;;;;;;11.60;64.70;94690.50;4962033;28;20045;-78
2022/04/17 06:30:44;;;;;;;6.65;5.95;;;;;;;11.56;64.62;94679.00;4981847;28;20062;-78
2022/04/17 06:33:09;;;;;;;6.97;6.38;;;;;;;11.53;65.54;94684.66;4952833;28;20031;-78
2022/04/17 06:35:35;;;;;;;6.10;5.50;;;;;;;11.58;64.08;94682.16;4956575;28;20483;-78
2022/04/17 06:38:01;;;;;;;6.65;5.57;;;;;;;11.58;64.74;94679.53;4968950;28;20037;-78
2022/04/17 06:40:28;;;;;;;6.32;5.75;;;;;;;11.61;64.40;94686.88;4952055;28;20327;-78
2022/04/17 06:42:56;;;;;;;5.97;5.47;;;;;;;11.58;64.38;94687.34;4956893;28;20144;-78
2022/04/17 06:45:22;;;;;;;6.78;5.93;;;;;;;11.62;64.15;94684.03;4968384;28;20383;-77
2022/04/17 06:47:48;;;;;;;8.38;6.22;;;;;;;11.67;64.58;94688.50;4959203;28;20034;-82
2022/04/17 06:50:18;;;;;;;7.93;6.15;;;;;;;11.60;65.41;94688.69;4958323;28;20039;-83
2022/04/17 06:52:44;;;;;;;7.43;6.10;;;;;;;11.58;65.65;94689.97;4943124;28;20049;-82
2022/04/17 06:55:11;;;;;;;8.50;6.60;;;;;;;11.55;66.19;94693.03;4957601;28;20129;-83
2022/04/17 06:57:39;;;;;;;6.95;6.28;;;;;;;11.53;65.75;94690.66;4960125;28;20031;-82
2022/04/17 07:00:11;;;;;;;6.82;6.13;;;;;;;11.51;66.09;94686.72;4961436;28;20035;-84
2022/04/17 07:02:41;;;;;;;7.85;6.05;;;;;;;11.47;66.09;94683.03;4947160;28;20038;-84
2022/04/17 07:05:07;;;;;;;6.95;6.30;;;;;;;11.47;65.91;94681.22;4945544;28;20045;-83
2022/04/17 07:07:33;;;;;;;5.63;5.22;;;;;;;11.47;65.27;94691.63;4944904;28;20137;-83
2022/04/17 07:10:00;;;;;;;5.70;5.20;;;;;;;11.39;66.50;94687.63;4932496;28;20026;-83
2022/04/17 07:12:26;;;;;;;9.82;6.28;;;;;;;11.36;66.31;94700.31;4940706;28;20102;-81
2022/04/17 07:14:51;;;;;;;14.07;7.38;;;;;;;11.38;66.02;94699.03;4959983;28;20034;-82
2022/04/17 07:17:17;;;;;;;7.88;6.47;;;;;;;11.38;66.18;94688.63;4958370;28;20034;-82
2022/04/17 07:19:42;;;;;;;9.70;5.50;;;;;;;11.37;67.50;94688.88;4944131;28;20436;-81
2022/04/17 07:22:08;;;;;;;6.03;5.43;;;;;;;11.42;66.72;94694.97;4947718;28;20043;-81
2022/04/17 07:24:34;;;;;;;7.70;5.70;;;;;;;11.49;66.10;94691.38;4943505;28;20490;-80
2022/04/17 07:27:01;;;;;;;7.22;5.90;;;;;;;11.51;66.70;94694.53;4933628;28;20046;-81
2022/04/17 07:29:27;;;;;;;8.52;5.28;;;;;;;11.55;65.78;94693.03;4944010;28;20031;-85
2022/04/17 07:31:53;;;;;;;6.30;5.70;;;;;;;11.54;65.95;94691.44;4959821;28;20043;-81
2022/04/17 07:34:22;;;;;;;7.35;6.70;;;;;;;11.56;66.54;94694.63;4943339;28;20035;-82
2022/04/17 07:36:47;;;;;;;6.40;5.80;;;;;;;11.53;67.16;94700.28;4959009;28;20042;-81
2022/04/17 07:39:16;;;;;;;7.10;5.45;;;;;;;11.51;66.86;94692.72;4958281;28;20121;-81
2022/04/17 07:41:43;;;;;;;6.32;5.43;;;;;;;11.62;66.39;94696.25;4960160;28;20101;-82
2022/04/17 07:44:11;;;;;;;5.53;5.13;;;;;;;11.67;65.79;94696.31;4960718;28;20127;-79
2022/04/17 07:46:40;;;;;;;6.30;4.57;;;;;;;11.67;66.19;94697.09;4976524;28;20038;-79
2022/04/17 07:49:05;;;;;;;4.93;4.38;;;;;;;11.69;65.50;94699.47;4961380;28;20046;-79
2022/04/17 07:51:31;;;;;;;5.63;4.78;;;;;;;11.72;65.54;94699.00;4936402;28;20179;-79
2022/04/17 07:53:56;;;;;;;4.72;4.43;;;;;;;11.72;65.63;94691.19;4975612;28;20074;-79
2022/04/17 07:56:22;;;;;;;5.03;4.45;;;;;;;11.78;65.12;94685.00;4942474;28;20049;-78
2022/04/17 07:58:48;;;;;;;4.53;4.13;;;;;;;11.80;65.15;94692.59;4945227;28;20050;-79
2022/04/17 08:01:15;;;;;;;5.13;4.72;;;;;;;11.80;65.03;94680.38;4962662;28;20051;-79
2022/04/17 08:06:07;;;;;;;3.88;3.67;;;;;;;11.70;64.30;94680.19;4978773;28;20039;-79
2022/04/17 08:08:36;;;;;;;3.88;3.50;;;;;;;11.65;64.41;94682.75;4978013;28;20038;-79
2022/04/17 08:11:04;;;;;;;4.22;3.92;;;;;;;11.59;64.86;94683.72;4950713;28;20132;-80
2022/04/17 08:13:29;;;;;;;4.65;4.25;;;;;;;11.59;65.70;94678.50;4948542;28;20035;-79
2022/04/17 08:15:55;;;;;;;4.43;4.07;;;;;;;11.56;65.27;94673.78;4985719;28;20045;-80
2022/04/17 08:18:20;;;;;;;5.18;4.68;;;;;;;11.60;65.02;94674.88;4961767;28;20058;-80
2022/04/17 08:20:46;;;;;;;8.77;3.33;;;;;;;11.68;64.00;94671.84;4945682;28;20570;-79
2022/04/17 08:23:11;;;;;;;5.38;4.88;;;;;;;11.60;63.81;94672.28;4961041;28;20027;-80
2022/04/17 08:25:37;;;;;;;4.45;4.05;;;;;;;11.62;65.34;94673.59;4962535;28;20134;-79
2022/04/17 08:28:03;;;;;;;4.80;4.35;;;;;;;11.64;64.76;94681.97;4958601;28;20046;-80
2022/04/17 08:30:32;;;;;;;3.70;3.50;;;;;;;11.69;64.74;94676.00;4942903;28;20047;-79
2022/04/17 08:32:59;;;;;;;4.93;3.70;;;;;;;11.75;64.63;94672.47;4960467;28;20034;-82
2022/04/17 08:35:28;;;;;;;6.45;3.90;;;;;;;11.89;64.45;94672.94;4946586;28;20491;-82
2022/04/17 08:37:54;;;;;;;4.15;3.83;;;;;;;11.98;64.10;94677.44;4944974;28;20035;-80
2022/04/17 08:40:20;;;;;;;6.68;4.38;;;;;;;12.05;64.53;94672.06;4943750;28;20039;-80
2022/04/17 08:42:46;;;;;;;6.28;4.20;;;;;;;12.09;64.15;94672.38;4962952;28;20043;-81
2022/04/17 08:45:12;;;;;;;4.65;4.25;;;;;;;12.14;64.56;94675.00;4933251;28;20030;-83
2022/04/17 08:47:41;;;;;;;3.90;3.60;;;;;;;12.18;64.13;94671.66;4934209;28;20049;-82
2022/04/17 08:50:10;;;;;;;5.25;4.20;;;;;;;12.21;63.70;94675.63;4964550;28;20037;-82
2022/04/17 08:52:37;;;;;;;4.57;4.18;;;;;;;12.29;64.36;94680.41;4949070;28;20483;-82
2022/04/17 08:55:02;;;;;;;4.20;3.80;;;;;;;12.34;64.27;94680.44;4964658;28;20042;-82
2022/04/17 08:57:28;;;;;;;4.10;3.78;;;;;;;12.34;63.92;94675.22;4947198;28;20031;-81
2022/04/17 08:59:54;;;;;;;3.47;3.28;;;;;;;12.38;62.80;94671.13;4964480;28;20098;-82
2022/04/17 09:02:26;;;;;;;4.05;3.65;;;;;;;12.39;62.32;94667.47;4963580;28;20035;-81
2022/04/17 09:04:53;;;;;;;4.97;4.47;;;;;;;12.19;61.33;94657.59;4979554;28;20038;-83
2022/04/17 09:07:18;;;;;;;4.88;4.20;;;;;;;12.16;62.00;94665.13;4963938;28;20466;-81
2022/04/17 09:09:52;;;;;;;5.80;4.65;;;;;;;12.10;61.85;94650.47;4949002;28;20495;-84
2022/04/17 09:12:33;;;;;;;4.63;4.10;;;;;;;12.24;63.10;94667.31;4940331;28;20050;-82
2022/04/17 09:14:58;;;;;;;3.97;3.67;;;;;;;12.35;63.69;94666.38;4952690;28;20038;-83
2022/04/17 09:17:33;;;;;;;5.47;3.97;;;;;;;12.43;62.91;94663.31;4955892;28;20038;-81
2022/04/17 09:19:59;;;;;;;4.03;3.63;;;;;;;12.26;61.28;94662.63;4964838;28;20062;-80
2022/04/17 09:22:26;;;;;;;4.10;3.80;;;;;;;12.18;61.44;94650.03;4949385;28;20395;-83
2022/04/17 09:24:57;;;;;;;3.70;3.40;;;;;;;12.24;61.56;94662.09;5265104;23;20473;-81
2022/04/17 09:27:28;;;;;;;4.60;4.20;;;;;;;12.28;62.37;94655.34;5023841;28;20042;-80
2022/04/17 09:29:54;;;;;;;5.07;4.68;;;;;;;12.32;62.88;94640.78;5018290;28;20030;-81
2022/04/17 09:32:21;;;;;;;4.28;3.88;;;;;;;12.36;61.82;94641.88;5016340;28;20041;-80
2022/04/17 09:34:55;;;;;;;3.38;3.08;;;;;;;12.37;61.40;94635.63;5031489;28;20042;-83
2022/04/17 09:37:24;;;;;;;5.53;4.20;;;;;;;12.42;62.26;94635.69;4995079;28;20548;-83
2022/04/17 09:39:52;;;;;;;6.18;4.35;;;;;;;12.35;62.98;94629.84;4990365;28;20420;-83
2022/04/17 09:42:25;;;;;;;4.72;4.20;;;;;;;12.35;63.21;94623.84;4982790;28;20030;-82
2022/04/17 09:44:54;;;;;;;4.45;4.15;;;;;;;12.39;62.55;94607.50;5006844;28;20041;-82
2022/04/17 09:47:37;;;;;;;6.80;4.68;;;;;;;12.46;62.53;94604.66;4981855;28;20038;-83
2022/04/17 09:50:06;;;;;;;6.07;5.05;;;;;;;12.42;61.99;94608.81;5015468;28;20041;-82
2022/04/17 09:52:45;;;;;;;4.10;3.80;;;;;;;12.45;61.40;94605.72;4998036;28;20161;-81
2022/04/17 09:55:11;;;;;;;5.45;4.55;;;;;;;12.54;61.66;94612.84;4997264;28;20037;-82
2022/04/17 09:57:38;;;;;;;4.82;4.35;;;;;;;12.30;61.40;94614.19;5005168;28;20027;-81
2022/04/17 10:00:18;;;;;;;3.88;3.58;;;;;;;12.26;61.01;94606.06;4982535;28;20034;-81
2022/04/17 10:02:45;;;;;;;3.85;3.35;;;;;;;12.24;61.08;94605.53;5000594;28;20110;-79
2022/04/17 10:05:11;;;;;;;4.30;3.90;;;;;;;12.09;62.72;94604.59;4994747;28;20113;-79
2022/04/17 10:07:38;;;;;;;8.32;3.75;;;;;;;12.12;63.38;94609.31;5009969;28;20034;-78
2022/04/17 10:10:05;;;;;;;3.13;2.90;;;;;;;12.01;61.55;94609.19;5020996;28;20042;-79
2022/04/17 10:12:30;;;;;;;4.38;3.97;;;;;;;12.01;63.75;94604.00;4993181;28;20084;-79
2022/04/17 10:14:57;;;;;;;4.57;3.83;;;;;;;11.93;63.88;94599.22;5024351;28;20501;-78
2022/04/17 10:17:23;;;;;;;4.20;3.80;;;;;;;11.75;64.38;94594.31;5001826;28;20148;-78
2022/04/17 10:19:49;;;;;;;4.88;4.47;;;;;;;11.70;65.26;94591.63;5003634;28;20157;-78
2022/04/17 10:22:18;;;;;;;6.03;4.28;;;;;;;11.65;64.69;94586.38;5005941;28;20045;-78
2022/04/17 10:24:51;;;;;;;5.07;4.57;;;;;;;11.52;64.78;94589.34;5019479;28;20037;-78
2022/04/17 10:27:22;;;;;;;5.40;4.10;;;;;;;11.36;65.66;94591.75;5020134;28;20039;-78
2022/04/17 10:30:02;;;;;;;5.30;4.80;;;;;;;11.18;65.75;94589.44;5002605;28;20046;-77
2022/04/17 10:32:36;;;;;;;4.68;3.83;;;;;;;11.12;65.63;94595.63;4985441;28;20041;-80
2022/04/17 10:35:56;;;;;;;4.63;4.13;;;;;;;10.90;65.52;94599.97;4993344;28;20051;-77
2022/04/17 10:38:23;;;;;;;4.20;3.80;;;;;;;10.83;65.99;94602.75;4945206;29;20042;-86
2022/04/17 10:40:59;;;;;;;5.38;4.60;;;;;;;10.77;66.43;94593.31;4998479;28;20050;-80
2022/04/17 10:43:37;;;;;;;4.95;4.63;;;;;;;10.74;66.79;94586.78;5009186;28;20034;-82
2022/04/17 10:46:15;;;;;;;4.70;4.40;;;;;;;10.73;65.27;94579.97;4999616;28;20090;-83
2022/04/17 10:48:48;;;;;;;7.15;4.32;;;;;;;10.72;67.36;94578.41;4997733;28;20044;-79
2022/04/17 10:51:14;;;;;;;;;;;;;;;10.75;66.86;94585.75;5006045;28;20545;-79
2022/04/17 10:53:49;;;;;;;4.72;4.32;;;;;;;10.69;67.31;94593.69;5022029;28;20565;-78
2022/04/17 10:56:15;;;;;;;6.10;5.50;;;;;;;10.68;67.07;94595.50;4995547;28;20035;-77
2022/04/17 10:58:49;;;;;;;6.47;4.60;;;;;;;10.73;66.31;94584.38;4995126;28;20459;-78
2022/04/17 11:01:15;;;;;;;7.03;5.35;;;;;;;10.65;66.39;94588.19;4977695;28;20034;-78
2022/04/17 11:03:52;;;;;;;5.10;4.70;;;;;;;10.65;66.83;94575.19;4993192;28;20031;-80
2022/04/17 11:06:31;;;;;;;7.65;6.93;;;;;;;10.65;66.29;94574.41;5016122;28;20076;-78
2022/04/17 11:09:05;;;;;;;8.93;8.02;;;;;;;10.60;66.05;94572.53;4995726;28;20145;-80
2022/04/17 11:11:35;;;;;;;7.00;6.15;;;;;;;10.64;66.34;94571.00;5011105;28;20506;-79
2022/04/17 11:14:16;;;;;;;7.50;6.47;;;;;;;10.63;67.69;94574.63;5009765;28;20046;-79
2022/04/17 11:16:54;;;;;;;10.00;8.00;;;;;;;10.71;66.87;94574.22;4993334;28;20030;-78
2022/04/17 11:19:23;;;;;;;12.02;9.80;;;;;;;10.71;66.38;94574.22;4991958;28;20042;-79
2022/04/17 11:21:53;;;;;;;12.60;11.27;;;;;;;10.77;66.24;94573.28;5009569;28;20034;-80
2022/04/17 11:24:19;;;;;;;21.23;15.23;;;;;;;10.77;65.79;94573.28;4977329;28;20409;-79
2022/04/17 11:26:53;;;;;;;13.85;9.25;;;;;;;10.81;65.98;94579.59;5025385;28;20030;-77
2022/04/17 11:29:34;;;;;;;8.38;5.18;;;;;;;10.76;65.38;94576.91;4994615;28;20034;-79
2022/04/17 11:32:00;;;;;;;9.65;6.30;;;;;;;10.69;66.11;94576.28;4992100;28;20034;-79
2022/04/17 11:34:42;;;;;;;7.88;6.93;;;;;;;10.73;65.64;94581.78;5021486;28;20065;-78
2022/04/17 11:37:08;;;;;;;16.17;9.75;;;;;;;10.75;66.05;94585.75;4990567;28;20037;-78
2022/04/17 11:39:34;;;;;;;16.67;8.13;;;;;;;10.82;65.61;94588.97;4991318;28;20031;-80
2022/04/17 11:41:59;;;;;;;11.98;8.75;;;;;;;10.78;65.59;94585.28;5007040;28;20046;-80